Time;durP1;ratioP1;P1;durP2;ratioP2;P2;SDS_P1;SDS_P2;PMS_P1;PMS_P2;Temp;Humidity;BMP_temperature;BMP_pressure;BME280_temperature;BME280_humidity;BME280_pressure;Samples;Min_cycle;Max_cycle;Signal;HPM_P1;HPM_P2
2022/05/21 00:00:17;;;;;;;3.33;2.22;;;;;;;;;;5140603;27;20641;-52
2022/05/21 00:02:42;;;;;;;5.18;2.53;;;;;;;;;;5136835;27;20062;-49
2022/05/21 00:05:08;;;;;;;4.25;1.75;;;;;;;;;;5138505;27;20642;-51
2022/05/21 00:07:33;;;;;;;2.25;1.65;;;;;;;;;;5136288;27;20035;-50
2022/05/21 00:09:59;;;;;;;5.22;2.50;;;;;;;;;;5139653;27;20042;-50
2022/05/21 00:12:24;;;;;;;11.93;1.42;;;;;;;;;;5138174;27;20767;-49
2022/05/21 00:14:52;;;;;;;7.32;1.88;;;;;;;;;;5137155;27;20381;-52
2022/05/21 00:17:17;;;;;;;3.38;1.75;;;;;;;;;;5142486;27;20043;-49
2022/05/21 00:19:43;;;;;;;3.03;1.98;;;;;;;;;;5142702;27;20818;-48
2022/05/21 00:22:08;;;;;;;3.90;1.60;;;;;;;;;;5141756;27;20074;-50
2022/05/21 00:24:33;;;;;;;4.43;1.67;;;;;;;;;;5140031;27;20130;-50
2022/05/21 00:26:59;;;;;;;2.97;1.88;;;;;;;;;;5136543;27;20105;-49
2022/05/21 00:29:26;;;;;;;4.57;2.13;;;;;;;;;;5137724;27;20426;-50
2022/05/21 00:31:51;;;;;;;3.08;1.92;;;;;;;;;;5136180;27;20092;-49
2022/05/21 00:34:16;;;;;;;6.28;2.55;;;;;;;;;;5136902;27;20047;-52
2022/05/21 00:36:42;;;;;;;2.95;1.95;;;;;;;;;;5137355;27;20365;-51
2022/05/21 00:39:07;;;;;;;5.07;2.88;;;;;;;;;;5135890;27;20133;-51
2022/05/21 00:41:33;;;;;;;2.50;1.77;;;;;;;;;;5136136;27;20042;-49
2022/05/21 00:43:59;;;;;;;5.53;2.13;;;;;;;;;;5138628;27;20074;-48
2022/05/21 00:46:29;;;;;;;9.73;1.90;;;;;;;;;;5135812;27;20046;-48
2022/05/21 00:49:03;;;;;;;2.50;1.42;;;;;;;;;;5137509;27;20046;-52
2022/05/21 00:51:32;;;;;;;5.03;1.55;;;;;;;;;;5137048;27;20130;-49
2022/05/21 00:54:00;;;;;;;3.60;1.00;;;;;;;;;;5137730;27;20031;-49
2022/05/21 00:56:26;;;;;;;2.00;1.25;;;;;;;;;;5140634;27;20042;-50
2022/05/21 01:01:37;;;;;;;8.02;2.10;;;;;;;;;;5137762;27;20112;-51
2022/05/21 01:04:03;;;;;;;8.68;2.60;;;;;;;;;;5136292;27;20630;-50
2022/05/21 01:06:29;;;;;;;7.97;2.55;;;;;;;;;;5135965;27;20130;-52
2022/05/21 01:08:54;;;;;;;3.55;2.00;;;;;;;;;;5137017;27;20039;-48
2022/05/21 01:11:19;;;;;;;5.88;3.15;;;;;;;;;;5136740;27;20065;-48
2022/05/21 01:13:46;;;;;;;4.35;2.35;;;;;;;;;;5137039;27;20115;-47
2022/05/21 01:16:13;;;;;;;2.15;1.65;;;;;;;;;;5136979;27;20139;-49
2022/05/21 01:18:38;;;;;;;3.50;2.00;;;;;;;;;;5137961;27;20043;-49
2022/05/21 01:21:04;;;;;;;6.65;0.70;;;;;;;;;;5135972;27;20039;-52
2022/05/21 01:23:30;;;;;;;6.63;1.27;;;;;;;;;;5134615;27;20043;-50
2022/05/21 01:25:56;;;;;;;2.25;1.73;;;;;;;;;;5134248;27;20602;-51
2022/05/21 01:28:23;;;;;;;1.83;0.85;;;;;;;;;;5135786;27;20089;-50
2022/05/21 01:30:50;;;;;;;6.15;3.05;;;;;;;;;;5135798;27;20064;-52
2022/05/21 01:33:17;;;;;;;3.55;1.52;;;;;;;;;;5138637;27;20047;-51
2022/05/21 01:35:43;;;;;;;4.45;2.05;;;;;;;;;;5136565;27;20034;-52
2022/05/21 01:38:09;;;;;;;4.00;1.30;;;;;;;;;;5138175;27;20057;-50
2022/05/21 01:40:35;;;;;;;2.83;1.65;;;;;;;;;;5138505;27;20035;-50
2022/05/21 01:45:45;;;;;;;6.22;2.03;;;;;;;;;;5134621;27;20131;-48
2022/05/21 01:48:11;;;;;;;4.07;1.40;;;;;;;;;;5138825;27;20133;-49
2022/05/21 01:50:38;;;;;;;6.00;2.45;;;;;;;;;;5135981;27;20169;-50
2022/05/21 01:53:04;;;;;;;3.88;1.48;;;;;;;;;;5136848;27;20447;-51
2022/05/21 01:55:29;;;;;;;4.93;2.97;;;;;;;;;;5137748;27;20122;-51
2022/05/21 01:57:54;;;;;;;2.65;1.45;;;;;;;;;;5139293;27;20057;-50
2022/05/21 02:00:20;;;;;;;1.80;1.30;;;;;;;;;;5136875;27;20038;-51
2022/05/21 02:02:45;;;;;;;3.50;2.38;;;;;;;;;;5135493;27;20097;-51
2022/05/21 02:05:11;;;;;;;8.45;1.55;;;;;;;;;;5138473;27;20122;-49
2022/05/21 02:07:36;;;;;;;17.05;2.97;;;;;;;;;;5136416;27;20495;-52
2022/05/21 02:10:03;;;;;;;3.05;1.58;;;;;;;;;;5138027;27;20090;-49
2022/05/21 02:12:28;;;;;;;1.85;1.33;;;;;;;;;;5136759;27;20138;-50
2022/05/21 02:14:55;;;;;;;1.30;1.15;;;;;;;;;;5134344;27;20631;-47
2022/05/21 02:17:20;;;;;;;6.03;1.50;;;;;;;;;;5134675;27;20145;-49
2022/05/21 02:19:46;;;;;;;2.50;1.65;;;;;;;;;;5139368;27;20050;-49
2022/05/21 02:22:11;;;;;;;1.85;1.20;;;;;;;;;;5135084;27;20085;-46
2022/05/21 02:24:37;;;;;;;4.18;1.60;;;;;;;;;;5137146;27;20070;-49
2022/05/21 02:27:03;;;;;;;1.15;0.90;;;;;;;;;;5138313;27;20038;-49
2022/05/21 02:29:28;;;;;;;3.28;1.98;;;;;;;;;;5138088;27;20046;-51
2022/05/21 02:31:54;;;;;;;10.00;2.05;;;;;;;;;;5136336;27;20043;-50
2022/05/21 02:34:19;;;;;;;2.83;1.45;;;;;;;;;;5135122;27;20054;-44
2022/05/21 02:39:31;;;;;;;4.18;1.25;;;;;;;;;;5136375;27;20053;-49
2022/05/21 02:41:57;;;;;;;1.98;1.20;;;;;;;;;;5134143;27;20368;-50
2022/05/21 02:44:23;;;;;;;6.63;2.88;;;;;;;;;;5131281;27;20148;-49
2022/05/21 02:46:48;;;;;;;1.50;0.90;;;;;;;;;;5139950;27;20055;-51
2022/05/21 02:49:14;;;;;;;6.07;2.20;;;;;;;;;;5140339;27;20593;-48
2022/05/21 02:51:39;;;;;;;2.63;1.35;;;;;;;;;;5139028;27;20507;-51
2022/05/21 02:54:06;;;;;;;3.50;1.60;;;;;;;;;;5136461;27;20118;-52
2022/05/21 02:56:32;;;;;;;2.83;0.93;;;;;;;;;;5142127;27;20072;-47
2022/05/21 02:58:57;;;;;;;3.30;1.70;;;;;;;;;;5145691;27;20042;-50
2022/05/21 03:01:22;;;;;;;2.15;0.98;;;;;;;;;;5137448;27;20534;-50
2022/05/21 03:03:47;;;;;;;2.78;1.35;;;;;;;;;;5140377;27;20073;-46
2022/05/21 03:06:13;;;;;;;7.47;1.67;;;;;;;;;;5139719;27;20051;-48
2022/05/21 03:11:22;;;;;;;2.08;1.23;;;;;;;;;;5136610;27;20442;-51
2022/05/21 03:13:47;;;;;;;1.67;1.23;;;;;;;;;;5137650;27;20055;-47
2022/05/21 03:16:13;;;;;;;3.97;1.50;;;;;;;;;;5139534;27;20442;-52
2022/05/21 03:18:39;;;;;;;3.22;1.33;;;;;;;;;;5140572;27;20138;-51
2022/05/21 03:21:04;;;;;;;3.40;2.17;;;;;;;;;;5139052;27;20137;-50
2022/05/21 03:23:30;;;;;;;1.25;0.95;;;;;;;;;;5138875;27;20046;-49
2022/05/21 03:25:55;;;;;;;5.82;2.33;;;;;;;;;;5138946;27;20475;-49
2022/05/21 03:28:21;;;;;;;12.93;2.22;;;;;;;;;;5139271;27;20435;-50
2022/05/21 03:30:46;;;;;;;1.92;1.10;;;;;;;;;;5142193;27;20137;-50
2022/05/21 03:33:11;;;;;;;1.52;1.08;;;;;;;;;;5141757;27;20077;-50
2022/05/21 03:35:37;;;;;;;2.90;1.48;;;;;;;;;;5138211;27;20035;-49
2022/05/21 03:38:02;;;;;;;4.47;1.60;;;;;;;;;;5139837;27;20035;-51
2022/05/21 03:40:29;;;;;;;3.25;1.48;;;;;;;;;;5138605;27;20039;-49
2022/05/21 03:42:54;;;;;;;4.30;0.98;;;;;;;;;;5139335;27;20076;-49
2022/05/21 03:45:20;;;;;;;2.17;1.70;;;;;;;;;;5138550;27;20055;-51
2022/05/21 03:47:45;;;;;;;5.80;1.80;;;;;;;;;;5139897;27;20139;-52
2022/05/21 03:50:12;;;;;;;1.10;0.68;;;;;;;;;;5137630;27;20046;-51
2022/05/21 03:52:38;;;;;;;3.42;1.42;;;;;;;;;;5139650;27;20054;-52
2022/05/21 03:55:03;;;;;;;3.20;2.13;;;;;;;;;;5138099;27;20042;-50
2022/05/21 03:57:29;;;;;;;2.15;1.00;;;;;;;;;;5137893;27;20122;-50
2022/05/21 03:59:57;;;;;;;2.78;1.23;;;;;;;;;;5138238;27;20095;-49
2022/05/21 04:02:22;;;;;;;3.00;1.58;;;;;;;;;;5144422;27;20061;-52
2022/05/21 04:04:47;;;;;;;5.20;2.70;;;;;;;;;;5137164;27;20047;-53
2022/05/21 04:07:13;;;;;;;5.82;1.90;;;;;;;;;;5140311;27;20540;-51
2022/05/21 04:09:38;;;;;;;8.10;2.47;;;;;;;;;;5141895;27;20045;-49
2022/05/21 04:12:04;;;;;;;5.90;2.95;;;;;;;;;;5140606;27;20146;-48
2022/05/21 04:14:29;;;;;;;2.80;2.00;;;;;;;;;;5141668;27;20436;-47
2022/05/21 04:16:55;;;;;;;4.03;2.50;;;;;;;;;;5140644;27;20114;-45
2022/05/21 04:19:21;;;;;;;1.58;1.48;;;;;;;;;;5140733;27;20087;-43
2022/05/21 04:21:46;;;;;;;2.05;1.10;;;;;;;;;;5139610;27;20039;-48
2022/05/21 04:24:11;;;;;;;4.03;2.38;;;;;;;;;;5139082;27;20434;-50
2022/05/21 04:26:37;;;;;;;3.40;1.55;;;;;;;;;;5137881;27;20030;-46
2022/05/21 04:29:02;;;;;;;7.47;1.88;;;;;;;;;;5122209;27;20051;-42
2022/05/21 04:31:27;;;;;;;2.13;1.50;;;;;;;;;;5139259;27;20062;-44
2022/05/21 04:33:53;;;;;;;2.47;1.73;;;;;;;;;;5140588;27;20049;-42
2022/05/21 04:36:18;;;;;;;3.40;1.88;;;;;;;;;;5141725;27;20050;-47
2022/05/21 04:38:44;;;;;;;4.18;2.28;;;;;;;;;;5143153;27;20500;-47
2022/05/21 04:41:10;;;;;;;4.00;1.70;;;;;;;;;;5139949;27;20035;-46
2022/05/21 04:43:35;;;;;;;7.93;1.58;;;;;;;;;;5142957;27;20046;-48
2022/05/21 04:46:01;;;;;;;2.42;1.35;;;;;;;;;;5141799;27;20065;-44
2022/05/21 04:48:26;;;;;;;3.67;2.05;;;;;;;;;;5140252;27;20163;-47
2022/05/21 04:50:51;;;;;;;4.05;2.05;;;;;;;;;;5141398;27;20091;-46
2022/05/21 04:53:16;;;;;;;6.38;1.77;;;;;;;;;;5140738;27;20114;-47
2022/05/21 04:55:42;;;;;;;2.00;1.33;;;;;;;;;;5141204;27;20565;-47
2022/05/21 04:58:08;;;;;;;4.38;2.33;;;;;;;;;;5138674;27;20419;-46
2022/05/21 05:00:34;;;;;;;3.72;2.40;;;;;;;;;;5138943;27;20091;-47
2022/05/21 05:02:59;;;;;;;2.90;2.38;;;;;;;;;;5140149;27;20444;-49
2022/05/21 05:05:25;;;;;;;7.95;1.95;;;;;;;;;;5139387;27;20129;-43
2022/05/21 05:07:50;;;;;;;6.35;2.35;;;;;;;;;;5139484;27;20472;-45
2022/05/21 05:10:15;;;;;;;4.47;1.98;;;;;;;;;;5139811;27;20546;-47
2022/05/21 05:12:41;;;;;;;5.43;2.08;;;;;;;;;;5137221;27;20535;-46
2022/05/21 05:15:06;;;;;;;3.20;2.25;;;;;;;;;;5140330;27;20074;-45
2022/05/21 05:17:32;;;;;;;13.00;3.25;;;;;;;;;;5138018;27;20046;-42
2022/05/21 05:19:59;;;;;;;5.47;2.67;;;;;;;;;;5139702;27;20130;-44
2022/05/21 05:22:24;;;;;;;2.75;2.05;;;;;;;;;;5140069;27;20051;-45
2022/05/21 05:24:50;;;;;;;9.13;3.03;;;;;;;;;;5141463;27;20721;-46
2022/05/21 05:27:15;;;;;;;2.97;1.70;;;;;;;;;;5140754;27;20055;-49
2022/05/21 05:29:41;;;;;;;18.30;2.72;;;;;;;;;;5140530;27;20118;-46
2022/05/21 05:32:07;;;;;;;3.60;2.72;;;;;;;;;;5138348;27;20104;-48
2022/05/21 05:34:33;;;;;;;12.05;3.55;;;;;;;;;;5137509;27;20046;-45
2022/05/21 05:36:58;;;;;;;3.53;2.30;;;;;;;;;;5142073;27;20046;-45
2022/05/21 05:39:23;;;;;;;8.10;2.90;;;;;;;;;;5139243;27;20870;-48
2022/05/21 05:41:49;;;;;;;4.15;2.63;;;;;;;;;;5139054;27;20042;-46
2022/05/21 05:44:14;;;;;;;4.53;2.35;;;;;;;;;;5139494;27;20073;-48
2022/05/21 05:46:40;;;;;;;2.55;1.90;;;;;;;;;;5138641;27;20533;-49
2022/05/21 05:49:05;;;;;;;8.93;2.40;;;;;;;;;;5138722;27;20046;-48
2022/05/21 05:51:31;;;;;;;15.25;5.47;;;;;;;;;;5138133;27;20129;-45
2022/05/21 05:53:56;;;;;;;34.88;6.82;;;;;;;;;;5136805;27;20381;-44
2022/05/21 05:56:21;;;;;;;18.85;4.55;;;;;;;;;;5138738;27;20070;-45
2022/05/21 06:01:31;;;;;;;3.47;2.08;;;;;;;;;;5138208;27;20095;-45
2022/05/21 06:03:56;;;;;;;13.43;3.60;;;;;;;;;;5140514;27;20456;-49
2022/05/21 06:06:22;;;;;;;23.20;4.00;;;;;;;;;;5134432;27;20177;-48
2022/05/21 06:08:47;;;;;;;9.27;4.05;;;;;;;;;;5139068;27;20126;-44
2022/05/21 06:11:13;;;;;;;4.75;2.58;;;;;;;;;;5136172;27;20497;-46
2022/05/21 06:13:39;;;;;;;11.07;3.35;;;;;;;;;;5137612;27;20035;-45
2022/05/21 06:16:04;;;;;;;8.52;2.10;;;;;;;;;;5138066;27;20035;-47
2022/05/21 06:18:30;;;;;;;43.38;4.85;;;;;;;;;;5141792;27;20043;-46
2022/05/21 06:20:59;;;;;;;23.23;5.82;;;;;;;;;;5139625;27;20043;-47
2022/05/21 06:23:24;;;;;;;6.20;2.97;;;;;;;;;;5138231;27;20058;-48
2022/05/21 06:25:50;;;;;;;8.98;3.22;;;;;;;;;;5138722;27;20682;-45
2022/05/21 06:28:15;;;;;;;26.20;3.30;;;;;;;;;;5139219;27;20042;-50
2022/05/21 06:30:41;;;;;;;4.45;2.83;;;;;;;;;;5139996;27;20077;-50
2022/05/21 06:33:20;;;;;;;10.32;3.40;;;;;;;;;;5143483;27;20050;-45
2022/05/21 06:35:47;;;;;;;6.28;3.25;;;;;;;;;;5143344;27;20051;-44
2022/05/21 06:38:13;;;;;;;5.60;4.05;;;;;;;;;;5143702;27;20402;-44
2022/05/21 06:40:38;;;;;;;10.20;5.82;;;;;;;;;;5144501;27;20047;-45
2022/05/21 06:43:03;;;;;;;13.15;8.13;;;;;;;;;;5143207;27;20041;-44
2022/05/21 06:45:30;;;;;;;15.88;13.80;;;;;;;;;;5141522;27;20432;-45
2022/05/21 06:47:59;;;;;;;17.70;10.20;;;;;;;;;;5144104;27;20096;-43
2022/05/21 06:50:24;;;;;;;20.92;8.75;;;;;;;;;;5142247;27;20043;-46
2022/05/21 06:52:49;;;;;;;13.85;9.15;;;;;;;;;;5142512;27;20047;-48
2022/05/21 06:55:15;;;;;;;14.75;10.70;;;;;;;;;;5142764;27;20038;-47
2022/05/21 06:57:40;;;;;;;18.70;9.10;;;;;;;;;;5139242;27;20554;-46
2022/05/21 07:00:06;;;;;;;11.75;7.55;;;;;;;;;;5139835;27;20047;-46
2022/05/21 07:02:31;;;;;;;17.27;5.65;;;;;;;;;;5144080;27;20582;-45
2022/05/21 07:07:43;;;;;;;10.00;7.35;;;;;;;;;;5146385;27;20195;-50
2022/05/21 07:10:10;;;;;;;10.05;7.13;;;;;;;;;;5142584;27;20051;-48
2022/05/21 07:12:36;;;;;;;9.23;6.72;;;;;;;;;;5142069;27;20054;-45
2022/05/21 07:15:02;;;;;;;8.30;6.10;;;;;;;;;;5142820;27;20039;-43
2022/05/21 07:17:28;;;;;;;8.13;5.60;;;;;;;;;;5143104;27;20064;-44
2022/05/21 07:19:53;;;;;;;4.72;4.22;;;;;;;;;;5138028;27;20126;-47
2022/05/21 07:22:18;;;;;;;15.73;6.35;;;;;;;;;;5141482;27;20049;-46
2022/05/21 07:24:44;;;;;;;6.30;3.53;;;;;;;;;;5140098;27;20139;-45
2022/05/21 07:27:12;;;;;;;7.70;4.63;;;;;;;;;;5138728;27;20772;-43
2022/05/21 07:29:37;;;;;;;12.88;4.90;;;;;;;;;;5144364;27;20107;-47
2022/05/21 07:32:03;;;;;;;5.72;4.90;;;;;;;;;;5141118;27;20034;-46
2022/05/21 07:34:29;;;;;;;7.95;5.30;;;;;;;;;;5142091;27;20078;-48
2022/05/21 07:36:54;;;;;;;4.00;3.17;;;;;;;;;;5143040;27;20524;-48
2022/05/21 07:39:19;;;;;;;10.65;5.20;;;;;;;;;;5142731;27;20031;-48
2022/05/21 07:41:45;;;;;;;6.55;3.40;;;;;;;;;;5141235;27;20039;-48
2022/05/21 07:44:10;;;;;;;5.57;2.42;;;;;;;;;;5142909;27;20298;-48
2022/05/21 07:46:35;;;;;;;8.48;3.40;;;;;;;;;;5139586;27;20122;-47
2022/05/21 07:49:01;;;;;;;7.78;4.82;;;;;;;;;;5139685;27;20142;-43
2022/05/21 07:51:26;;;;;;;12.45;6.53;;;;;;;;;;5138127;27;21383;-44
2022/05/21 07:53:52;;;;;;;4.25;2.83;;;;;;;;;;5139297;27;20081;-49
2022/05/21 07:56:17;;;;;;;8.20;4.40;;;;;;;;;;5139688;27;20153;-50
2022/05/21 07:58:43;;;;;;;6.78;3.45;;;;;;;;;;5140539;27;20495;-53
2022/05/21 08:01:10;;;;;;;7.75;3.63;;;;;;;;;;5141143;27;20226;-53
2022/05/21 08:03:35;;;;;;;5.80;4.53;;;;;;;;;;5138309;27;20117;-53
2022/05/21 08:06:01;;;;;;;5.90;4.00;;;;;;;;;;5138970;27;20508;-50
2022/05/21 08:08:26;;;;;;;16.58;8.60;;;;;;;;;;5140570;27;20639;-50
2022/05/21 08:10:51;;;;;;;22.85;7.72;;;;;;;;;;5142422;27;20054;-48
2022/05/21 08:13:17;;;;;;;8.18;5.38;;;;;;;;;;5140969;27;20079;-51
2022/05/21 08:15:43;;;;;;;10.55;3.97;;;;;;;;;;5139795;27;20043;-49
2022/05/21 08:18:08;;;;;;;5.28;3.60;;;;;;;;;;5141898;27;20039;-49
2022/05/21 08:20:35;;;;;;;22.38;6.45;;;;;;;;;;5143739;27;20057;-53
2022/05/21 08:28:28;;;;;;;3.50;2.30;;;;;;;;;;5141706;27;20045;-52
2022/05/21 08:30:53;;;;;;;11.13;3.22;;;;;;;;;;5137873;27;20039;-51
2022/05/21 08:33:22;;;;;;;3.83;2.55;;;;;;;;;;5143011;27;20050;-53
2022/05/21 08:35:47;;;;;;;6.78;2.38;;;;;;;;;;5138626;27;20671;-54
2022/05/21 08:38:15;;;;;;;2.50;1.48;;;;;;;;;;5139945;27;20146;-57
2022/05/21 08:40:59;;;;;;;6.18;2.10;;;;;;;;;;5138550;27;20063;-55
2022/05/21 08:43:29;;;;;;;3.15;1.83;;;;;;;;;;5139996;27;20070;-54
2022/05/21 08:46:01;;;;;;;2.85;2.25;;;;;;;;;;5139948;27;20519;-55
2022/05/21 08:48:28;;;;;;;6.57;2.38;;;;;;;;;;5140103;27;20138;-54
2022/05/21 08:50:54;;;;;;;4.65;2.33;;;;;;;;;;5142960;27;20035;-53
2022/05/21 08:53:22;;;;;;;18.27;16.52;;;;;;;;;;5135763;27;20061;-52
2022/05/21 08:55:50;;;;;;;8.38;2.75;;;;;;;;;;5119436;27;20842;-54
2022/05/21 08:58:30;;;;;;;10.88;2.40;;;;;;;;;;5119737;27;20043;-54
2022/05/21 09:00:56;;;;;;;3.70;2.45;;;;;;;;;;5138642;27;20043;-55
2022/05/21 09:03:22;;;;;;;4.80;2.80;;;;;;;;;;5135847;27;20038;-54
2022/05/21 09:06:07;;;;;;;2.13;1.92;;;;;;;;;;5137643;27;20055;-55
2022/05/21 09:08:51;;;;;;;3.33;1.90;;;;;;;;;;5138426;27;20047;-54
2022/05/21 09:11:35;;;;;;;10.95;2.60;;;;;;;;;;5138212;27;20073;-55
2022/05/21 09:14:14;;;;;;;4.63;3.55;;;;;;;;;;5142256;27;20559;-55
2022/05/21 09:16:56;;;;;;;6.13;1.92;;;;;;;;;;5137065;27;20138;-53
2022/05/21 09:19:23;;;;;;;4.57;3.50;;;;;;;;;;5139360;27;20050;-55
2022/05/21 09:21:50;;;;;;;5.20;2.72;;;;;;;;;;5137607;27;20031;-52
2022/05/21 09:24:34;;;;;;;2.28;1.70;;;;;;;;;;5137231;27;20046;-55
2022/05/21 09:26:59;;;;;;;6.28;4.10;;;;;;;;;;5140351;27;20046;-53
2022/05/21 09:29:26;;;;;;;4.63;2.97;;;;;;;;;;5140715;27;20047;-54
2022/05/21 09:31:53;;;;;;;2.10;1.20;;;;;;;;;;5135003;27;20470;-53
2022/05/21 09:34:29;;;;;;;5.68;3.83;;;;;;;;;;5139327;27;20129;-52
2022/05/21 09:36:55;;;;;;;10.95;2.42;;;;;;;;;;5141104;27;20034;-55
2022/05/21 09:39:34;;;;;;;3.70;2.53;;;;;;;;;;5139699;27;20039;-55
2022/05/21 09:45:23;;;;;;;7.00;3.38;;;;;;;;;;5138438;27;20138;-51
2022/05/21 09:47:55;;;;;;;9.10;2.67;;;;;;;;;;5137944;27;20074;-53
2022/05/21 09:50:24;;;;;;;4.50;2.47;;;;;;;;;;5141465;27;20330;-53
2022/05/21 09:52:49;;;;;;;4.97;3.63;;;;;;;;;;5138161;27;20043;-48
2022/05/21 09:55:33;;;;;;;11.65;4.05;;;;;;;;;;5141243;27;20037;-52
2022/05/21 09:58:13;;;;;;;3.75;2.55;;;;;;;;;;5137256;27;20045;-54
2022/05/21 10:00:38;;;;;;;5.93;2.63;;;;;;;;;;5136973;27;20050;-52
2022/05/21 10:03:05;;;;;;;2.83;1.75;;;;;;;;;;5136608;27;20058;-51
2022/05/21 10:05:30;;;;;;;4.95;3.78;;;;;;;;;;5140186;27;20042;-51
2022/05/21 10:10:59;;;;;;;3.05;1.75;;;;;;;;;;5139916;27;20148;-52
2022/05/21 10:13:25;;;;;;;4.47;2.85;;;;;;;;;;5137926;27;20059;-50
2022/05/21 10:15:57;;;;;;;3.80;2.35;;;;;;;;;;5142826;27;20046;-53
2022/05/21 10:18:22;;;;;;;3.03;2.72;;;;;;;;;;5142889;27;20035;-51
2022/05/21 10:20:51;;;;;;;4.00;3.17;;;;;;;;;;5141523;27;20730;-52
2022/05/21 10:23:22;;;;;;;5.80;2.10;;;;;;;;;;5142237;27;20131;-54
2022/05/21 10:25:59;;;;;;;6.25;2.40;;;;;;;;;;5139830;27;20035;-49
2022/05/21 10:28:30;;;;;;;9.27;3.83;;;;;;;;;;5143084;27;20046;-54
2022/05/21 10:31:14;;;;;;;7.05;2.55;;;;;;;;;;5135927;27;20161;-52
2022/05/21 10:33:40;;;;;;;2.22;1.55;;;;;;;;;;5140507;27;20047;-52
2022/05/21 10:36:25;;;;;;;9.20;3.90;;;;;;;;;;5140206;27;20122;-55
2022/05/21 10:38:57;;;;;;;4.90;2.53;;;;;;;;;;5102248;27;20546;-52
2022/05/21 10:41:28;;;;;;;5.43;2.00;;;;;;;;;;5139520;27;20081;-51
2022/05/21 10:44:01;;;;;;;6.65;2.75;;;;;;;;;;5140663;27;20052;-52
2022/05/21 10:46:32;;;;;;;11.95;3.38;;;;;;;;;;5140749;27;20046;-52
2022/05/21 10:49:16;;;;;;;5.90;3.13;;;;;;;;;;5128605;27;20138;-52
2022/05/21 10:52:02;;;;;;;7.47;3.13;;;;;;;;;;5142595;27;20140;-53
2022/05/21 10:54:30;;;;;;;3.10;2.75;;;;;;;;;;5140646;27;20039;-54
2022/05/21 10:57:16;;;;;;;3.35;2.22;;;;;;;;;;5141346;27;20116;-54
2022/05/21 11:00:00;;;;;;;2.83;1.90;;;;;;;;;;5141730;27;20050;-52
2022/05/21 11:02:45;;;;;;;4.65;1.95;;;;;;;;;;5141288;27;20090;-53
2022/05/21 11:05:23;;;;;;;8.70;4.00;;;;;;;;;;5142152;27;20065;-51
2022/05/21 11:07:57;;;;;;;3.78;2.40;;;;;;;;;;5142604;27;20051;-55
2022/05/21 11:10:29;;;;;;;2.95;2.65;;;;;;;;;;5141047;27;20115;-54
2022/05/21 11:13:14;;;;;;;9.18;2.85;;;;;;;;;;5140966;27;20043;-55
2022/05/21 11:15:42;;;;;;;2.88;2.20;;;;;;;;;;5142970;27;20051;-54
2022/05/21 11:18:21;;;;;;;3.15;2.85;;;;;;;;;;5142939;27;20130;-55
2022/05/21 11:20:52;;;;;;;5.50;3.55;;;;;;;;;;5143006;27;20038;-53
2022/05/21 11:23:39;;;;;;;9.18;4.00;;;;;;;;;;5142311;27;20043;-55
2022/05/21 11:26:14;;;;;;;7.03;2.40;;;;;;;;;;5142266;27;20077;-54
2022/05/21 11:28:46;;;;;;;2.38;1.95;;;;;;;;;;5140349;27;20043;-53
2022/05/21 11:37:22;;;;;;;5.05;3.00;;;;;;;;;;5142852;27;20126;-52
2022/05/21 11:39:49;;;;;;;4.00;2.08;;;;;;;;;;5138871;27;20125;-54
2022/05/21 11:42:16;;;;;;;3.38;2.05;;;;;;;;;;5141705;27;20042;-54
2022/05/21 11:45:03;;;;;;;2.80;2.05;;;;;;;;;;5139627;27;20058;-54
2022/05/21 11:47:33;;;;;;;3.40;2.53;;;;;;;;;;5141933;27;20507;-55
2022/05/21 11:50:01;;;;;;;21.27;4.72;;;;;;;;;;5141073;27;20035;-53
2022/05/21 11:52:26;;;;;;;4.20;2.55;;;;;;;;;;5143758;27;20519;-54
2022/05/21 11:54:58;;;;;;;5.90;2.88;;;;;;;;;;5136471;27;20049;-53
2022/05/21 11:57:33;;;;;;;6.07;3.10;;;;;;;;;;5139985;27;20051;-52
2022/05/21 12:00:00;;;;;;;3.85;3.45;;;;;;;;;;5141552;27;20523;-52
2022/05/21 12:02:27;;;;;;;3.97;2.75;;;;;;;;;;5140511;27;20073;-54
2022/05/21 12:04:57;;;;;;;3.50;2.72;;;;;;;;;;5141429;27;20114;-55
2022/05/21 12:07:42;;;;;;;4.95;2.70;;;;;;;;;;5140174;27;20131;-55
2022/05/21 12:10:24;;;;;;;5.15;3.25;;;;;;;;;;5139564;27;20039;-51
2022/05/21 12:13:10;;;;;;;2.88;2.00;;;;;;;;;;5140475;27;20042;-51
2022/05/21 12:15:41;;;;;;;8.75;4.22;;;;;;;;;;5143029;27;20055;-53
2022/05/21 12:18:26;;;;;;;16.25;2.55;;;;;;;;;;5139410;27;20182;-56
2022/05/21 12:20:52;;;;;;;6.70;3.40;;;;;;;;;;5138975;27;20491;-48
2022/05/21 12:23:20;;;;;;;8.65;4.20;;;;;;;;;;5138252;27;20638;-51
2022/05/21 12:25:46;;;;;;;3.10;2.15;;;;;;;;;;5141029;27;20050;-51
2022/05/21 12:28:12;;;;;;;3.15;1.90;;;;;;;;;;5140174;27;20046;-56
2022/05/21 12:30:38;;;;;;;4.68;2.92;;;;;;;;;;5141429;27;20055;-52
2022/05/21 12:33:06;;;;;;;4.65;2.13;;;;;;;;;;5138637;27;20728;-50
2022/05/21 12:35:48;;;;;;;3.63;2.72;;;;;;;;;;5137740;27;20051;-50
2022/05/21 12:38:29;;;;;;;7.22;3.08;;;;;;;;;;5137769;27;20503;-49
2022/05/21 12:40:57;;;;;;;3.33;2.03;;;;;;;;;;5139555;27;20122;-52
2022/05/21 12:43:22;;;;;;;2.53;2.05;;;;;;;;;;5142389;27;20047;-51
2022/05/21 12:45:49;;;;;;;2.55;1.48;;;;;;;;;;5138465;27;20110;-50
2022/05/21 12:48:15;;;;;;;3.53;2.45;;;;;;;;;;5139331;27;20061;-47
2022/05/21 12:50:57;;;;;;;3.63;2.03;;;;;;;;;;5138598;27;20533;-49
2022/05/21 12:53:32;;;;;;;1.73;1.30;;;;;;;;;;5138512;27;20089;-51
2022/05/21 12:56:05;;;;;;;8.18;2.47;;;;;;;;;;5137031;27;20031;-52
2022/05/21 12:58:31;;;;;;;4.10;2.22;;;;;;;;;;5138203;27;20154;-48
2022/05/21 13:00:57;;;;;;;4.07;1.98;;;;;;;;;;5135661;27;21490;-51
2022/05/21 13:03:23;;;;;;;3.13;2.38;;;;;;;;;;5138373;27;20046;-53
2022/05/21 13:05:51;;;;;;;4.63;2.80;;;;;;;;;;5136490;27;20069;-52
2022/05/21 13:08:17;;;;;;;2.83;2.60;;;;;;;;;;5141453;27;20433;-53
2022/05/21 13:10:53;;;;;;;2.72;1.95;;;;;;;;;;5136359;27;20045;-51
2022/05/21 13:13:20;;;;;;;6.95;2.97;;;;;;;;;;5133391;27;20105;-53
2022/05/21 13:15:55;;;;;;;5.65;2.75;;;;;;;;;;5137307;27;20087;-50
2022/05/21 13:18:26;;;;;;;7.30;2.28;;;;;;;;;;5135391;27;20027;-53
2022/05/21 13:21:10;;;;;;;3.53;1.83;;;;;;;;;;5136047;27;20090;-52
2022/05/21 13:23:54;;;;;;;13.98;4.95;;;;;;;;;;5136725;27;20086;-52
2022/05/21 13:26:27;;;;;;;3.17;1.77;;;;;;;;;;5133313;27;20068;-52
2022/05/21 13:29:11;;;;;;;3.90;2.88;;;;;;;;;;5136161;27;20187;-53
2022/05/21 13:31:36;;;;;;;3.13;1.65;;;;;;;;;;5135664;27;20046;-50
2022/05/21 13:34:02;;;;;;;4.38;3.05;;;;;;;;;;5134065;27;20095;-51
2022/05/21 13:36:32;;;;;;;10.10;4.57;;;;;;;;;;5137006;27;20122;-51
2022/05/21 13:38:59;;;;;;;6.85;2.47;;;;;;;;;;5135855;27;20053;-50
2022/05/21 13:41:36;;;;;;;4.28;2.85;;;;;;;;;;5117487;27;20046;-51
2022/05/21 13:44:05;;;;;;;4.18;2.60;;;;;;;;;;5138976;27;20127;-49
2022/05/21 13:46:32;;;;;;;6.35;3.05;;;;;;;;;;5137957;27;20057;-49
2022/05/21 13:49:00;;;;;;;4.53;3.63;;;;;;;;;;5139472;27;20062;-52
2022/05/21 13:51:28;;;;;;;0.77;0.52;;;;;;;;;;5140272;27;20046;-53
2022/05/21 13:53:54;;;;;;;3.72;2.75;;;;;;;;;;5138508;27;20372;-53
2022/05/21 13:56:32;;;;;;;8.45;4.32;;;;;;;;;;5139181;27;20039;-51
2022/05/21 13:59:06;;;;;;;5.57;4.07;;;;;;;;;;5138863;27;20049;-50
2022/05/21 14:01:33;;;;;;;3.10;1.45;;;;;;;;;;5138847;27;20034;-50
2022/05/21 14:04:05;;;;;;;19.00;5.72;;;;;;;;;;5136865;27;20039;-50
2022/05/21 14:06:31;;;;;;;6.13;2.80;;;;;;;;;;5133995;27;20043;-47
2022/05/21 14:08:57;;;;;;;4.35;3.20;;;;;;;;;;5133391;27;20133;-52
2022/05/21 14:11:23;;;;;;;7.93;3.97;;;;;;;;;;5134057;27;20049;-53
2022/05/21 14:13:58;;;;;;;3.05;2.00;;;;;;;;;;5136043;27;20115;-52
2022/05/21 14:16:25;;;;;;;4.25;2.55;;;;;;;;;;5138786;27;20052;-53
2022/05/21 14:19:09;;;;;;;3.95;2.58;;;;;;;;;;5136560;27;20027;-49
2022/05/21 14:21:37;;;;;;;5.80;4.10;;;;;;;;;;5138956;27;20042;-52
2022/05/21 14:24:16;;;;;;;4.00;2.20;;;;;;;;;;5138914;27;20046;-51
2022/05/21 14:27:08;;;;;;;4.82;1.63;;;;;;;;;;5137435;27;20031;-51
2022/05/21 14:29:36;;;;;;;8.93;4.78;;;;;;;;;;5084314;28;20042;-51
2022/05/21 14:32:20;;;;;;;2.08;1.75;;;;;;;;;;5109044;27;20098;-49
2022/05/21 14:34:46;;;;;;;1.98;1.52;;;;;;;;;;5108773;28;20036;-52
2022/05/21 14:37:26;;;;;;;5.40;2.92;;;;;;;;;;5106100;27;20130;-53
2022/05/21 14:39:54;;;;;;;9.52;2.90;;;;;;;;;;5116709;28;20039;-52
2022/05/21 14:42:20;;;;;;;4.18;2.10;;;;;;;;;;5115832;28;20035;-51
2022/05/21 14:44:46;;;;;;;5.30;3.13;;;;;;;;;;5118691;28;20577;-50
2022/05/21 14:52:50;;;;;;;3.13;1.48;;;;;;;;;;5120794;27;20062;-48
2022/05/21 14:55:15;;;;;;;2.97;1.95;;;;;;;;;;5124100;27;20047;-50
2022/05/21 14:57:40;;;;;;;6.88;2.95;;;;;;;;;;5119581;27;20088;-52
2022/05/21 15:00:06;;;;;;;8.82;4.35;;;;;;;;;;5123047;27;20073;-53
2022/05/21 15:02:31;;;;;;;6.78;3.10;;;;;;;;;;5119179;27;20555;-49
2022/05/21 15:04:56;;;;;;;4.07;3.22;;;;;;;;;;5110668;27;20698;-47
2022/05/21 15:07:24;;;;;;;3.58;1.55;;;;;;;;;;5110500;27;20048;-47
2022/05/21 15:09:52;;;;;;;6.45;2.60;;;;;;;;;;5104168;27;20040;-49
2022/05/21 15:12:17;;;;;;;4.65;2.90;;;;;;;;;;5117531;27;20046;-47
2022/05/21 15:14:43;;;;;;;3.83;2.63;;;;;;;;;;5119537;27;20057;-51
2022/05/21 15:17:08;;;;;;;4.18;2.53;;;;;;;;;;5121807;27;20043;-51
2022/05/21 15:19:35;;;;;;;3.33;2.25;;;;;;;;;;5122594;27;20039;-51
2022/05/21 15:22:01;;;;;;;3.70;2.05;;;;;;;;;;5122489;27;20043;-51
2022/05/21 15:24:27;;;;;;;20.85;4.38;;;;;;;;;;5120641;27;20141;-52
2022/05/21 15:26:52;;;;;;;7.05;2.40;;;;;;;;;;5120747;27;20066;-51